sensor_id;sensor_type;location;lat;lon;timestamp;pressure;altitude;pressure_sealevel;temperature;humidity
16793;BME280;8513;42.662;23.350;2022-09-09T00:01:27;95138.81;;;20.22;56.11
16793;BME280;8513;42.662;23.350;2022-09-09T00:04:09;95128.19;;;20.16;56.31
16793;BME280;8513;42.662;23.350;2022-09-09T00:09:51;95125.03;;;20.39;55.53
16793;BME280;8513;42.662;23.350;2022-09-09T00:15:16;95129.84;;;20.10;56.91
16793;BME280;8513;42.662;23.350;2022-09-09T00:23:20;95127.16;;;20.10;57.00
16793;BME280;8513;42.662;23.350;2022-09-09T00:28:24;95106.25;;;19.87;57.25
16793;BME280;8513;42.662;23.350;2022-09-09T00:30:50;95103.38;;;19.82;57.48
16793;BME280;8513;42.662;23.350;2022-09-09T00:33:19;95098.66;;;19.77;57.65
16793;BME280;8513;42.662;23.350;2022-09-09T00:35:49;95099.06;;;19.74;57.63
16793;BME280;8513;42.662;23.350;2022-09-09T00:38:35;95103.56;;;19.80;57.61
16793;BME280;8513;42.662;23.350;2022-09-09T00:44:27;95085.69;;;20.01;56.60
16793;BME280;8513;42.662;23.350;2022-09-09T00:49:44;95084.28;;;19.85;56.89
16793;BME280;8513;42.662;23.350;2022-09-09T00:57:28;95095.38;;;19.75;56.98
16793;BME280;8513;42.662;23.350;2022-09-09T01:00:20;95091.28;;;19.86;56.83
16793;BME280;8513;42.662;23.350;2022-09-09T01:10:58;95093.09;;;19.59;57.54
16793;BME280;8513;42.662;23.350;2022-09-09T01:13:30;95093.09;;;19.39;58.55
16793;BME280;8513;42.662;23.350;2022-09-09T01:16:01;95093.75;;;19.68;57.78
16793;BME280;8513;42.662;23.350;2022-09-09T01:18:36;95092.06;;;19.47;58.43
16793;BME280;8513;42.662;23.350;2022-09-09T01:23:58;95094.53;;;19.75;57.64
16793;BME280;8513;42.662;23.350;2022-09-09T01:28:55;95095.56;;;19.41;58.74
16793;BME280;8513;42.662;23.350;2022-09-09T01:31:28;95086.72;;;19.40;58.67
16793;BME280;8513;42.662;23.350;2022-09-09T01:33:56;95087.75;;;19.26;59.09
16793;BME280;8513;42.662;23.350;2022-09-09T01:36:28;95095.34;;;19.42;58.82
16793;BME280;8513;42.662;23.350;2022-09-09T01:38:56;95103.91;;;19.11;59.75
16793;BME280;8513;42.662;23.350;2022-09-09T01:41:22;95110.09;;;19.31;59.17
16793;BME280;8513;42.662;23.350;2022-09-09T01:43:47;95106.81;;;19.29;58.99
16793;BME280;8513;42.662;23.350;2022-09-09T01:46:13;95096.34;;;19.08;59.71
16793;BME280;8513;42.662;23.350;2022-09-09T01:48:41;95105.56;;;19.12;59.79
16793;BME280;8513;42.662;23.350;2022-09-09T01:51:09;95105.16;;;19.15;59.67
16793;BME280;8513;42.662;23.350;2022-09-09T01:53:36;95110.88;;;18.99;60.22
16793;BME280;8513;42.662;23.350;2022-09-09T01:56:27;95114.19;;;19.14;60.00
16793;BME280;8513;42.662;23.350;2022-09-09T02:02:08;95123.22;;;19.26;59.01
16793;BME280;8513;42.662;23.350;2022-09-09T02:04:45;95113.53;;;19.05;59.70
16793;BME280;8513;42.662;23.350;2022-09-09T02:09:42;95109.88;;;19.06;59.92
16793;BME280;8513;42.662;23.350;2022-09-09T02:12:14;95111.69;;;18.99;59.86
16793;BME280;8513;42.662;23.350;2022-09-09T02:14:48;95107.22;;;19.13;59.80
16793;BME280;8513;42.662;23.350;2022-09-09T02:17:21;95098.56;;;18.98;60.17
16793;BME280;8513;42.662;23.350;2022-09-09T02:19:58;95092.19;;;18.85;60.46
16793;BME280;8513;42.662;23.350;2022-09-09T02:22:26;95086.16;;;18.70;61.39
16793;BME280;8513;42.662;23.350;2022-09-09T02:24:56;95083.09;;;18.66;61.28
16793;BME280;8513;42.662;23.350;2022-09-09T02:27:24;95087.38;;;18.67;61.67
16793;BME280;8513;42.662;23.350;2022-09-09T02:29:51;95092.56;;;18.76;61.12
16793;BME280;8513;42.662;23.350;2022-09-09T02:32:21;95090.69;;;18.69;61.05
16793;BME280;8513;42.662;23.350;2022-09-09T02:34:51;95104.13;;;18.48;61.91
16793;BME280;8513;42.662;23.350;2022-09-09T02:37:20;95100.06;;;18.65;61.60
16793;BME280;8513;42.662;23.350;2022-09-09T02:39:50;95097.94;;;18.89;59.99
16793;BME280;8513;42.662;23.350;2022-09-09T02:42:16;95104.41;;;18.73;60.33
16793;BME280;8513;42.662;23.350;2022-09-09T02:44:42;95106.16;;;18.46;61.20
16793;BME280;8513;42.662;23.350;2022-09-09T02:47:16;95114.38;;;18.58;61.07
16793;BME280;8513;42.662;23.350;2022-09-09T02:50:00;95114.44;;;18.71;60.29
16793;BME280;8513;42.662;23.350;2022-09-09T02:57:58;95113.38;;;18.59;60.91
16793;BME280;8513;42.662;23.350;2022-09-09T03:00:27;95107.84;;;18.54;60.74
16793;BME280;8513;42.662;23.350;2022-09-09T03:02:53;95098.94;;;18.33;61.33
16793;BME280;8513;42.662;23.350;2022-09-09T03:05:20;95108.63;;;18.47;61.16
16793;BME280;8513;42.662;23.350;2022-09-09T03:07:46;95109.84;;;18.45;60.79
16793;BME280;8513;42.662;23.350;2022-09-09T03:10:12;95115.78;;;18.47;60.68
16793;BME280;8513;42.662;23.350;2022-09-09T03:12:38;95120.56;;;18.58;60.58
16793;BME280;8513;42.662;23.350;2022-09-09T03:15:05;95116.06;;;18.59;60.50
16793;BME280;8513;42.662;23.350;2022-09-09T03:17:30;95121.59;;;18.64;60.60
16793;BME280;8513;42.662;23.350;2022-09-09T03:19:56;95114.63;;;18.63;60.67
16793;BME280;8513;42.662;23.350;2022-09-09T03:22:23;95115.38;;;18.43;61.60
16793;BME280;8513;42.662;23.350;2022-09-09T03:24:48;95114.66;;;18.28;62.03
16793;BME280;8513;42.662;23.350;2022-09-09T03:27:13;95104.41;;;18.25;62.26
16793;BME280;8513;42.662;23.350;2022-09-09T03:29:42;95113.03;;;18.27;62.29
16793;BME280;8513;42.662;23.350;2022-09-09T03:32:08;95114.66;;;18.28;62.07
16793;BME280;8513;42.662;23.350;2022-09-09T03:34:35;95114.72;;;18.41;61.12
16793;BME280;8513;42.662;23.350;2022-09-09T03:37:02;95120.47;;;18.38;61.34
16793;BME280;8513;42.662;23.350;2022-09-09T03:39:27;95111.41;;;18.33;61.74
16793;BME280;8513;42.662;23.350;2022-09-09T03:41:54;95109.19;;;18.36;61.73
16793;BME280;8513;42.662;23.350;2022-09-09T03:44:19;95109.16;;;18.29;61.86
16793;BME280;8513;42.662;23.350;2022-09-09T03:46:44;95102.38;;;18.20;62.53
16793;BME280;8513;42.662;23.350;2022-09-09T03:49:10;95101.59;;;18.33;62.21
16793;BME280;8513;42.662;23.350;2022-09-09T03:51:36;95112.22;;;18.33;61.90
16793;BME280;8513;42.662;23.350;2022-09-09T03:54:02;95111.84;;;18.36;62.01
16793;BME280;8513;42.662;23.350;2022-09-09T03:56:30;95113.66;;;18.29;62.46
16793;BME280;8513;42.662;23.350;2022-09-09T03:58:56;95118.34;;;18.27;62.12
16793;BME280;8513;42.662;23.350;2022-09-09T04:01:23;95118.19;;;18.28;62.63
16793;BME280;8513;42.662;23.350;2022-09-09T04:03:48;95123.28;;;18.30;62.25
16793;BME280;8513;42.662;23.350;2022-09-09T04:06:15;95131.25;;;18.23;62.57
16793;BME280;8513;42.662;23.350;2022-09-09T04:08:42;95133.22;;;18.15;62.84
16793;BME280;8513;42.662;23.350;2022-09-09T04:11:07;95131.78;;;18.12;63.10
16793;BME280;8513;42.662;23.350;2022-09-09T04:13:34;95131.00;;;18.18;62.81
16793;BME280;8513;42.662;23.350;2022-09-09T04:16:01;95122.47;;;18.29;62.47
16793;BME280;8513;42.662;23.350;2022-09-09T04:18:27;95125.16;;;18.36;62.11
16793;BME280;8513;42.662;23.350;2022-09-09T04:20:56;95111.78;;;18.23;62.82
16793;BME280;8513;42.662;23.350;2022-09-09T04:23:23;95119.56;;;18.24;62.68
16793;BME280;8513;42.662;23.350;2022-09-09T04:25:53;95119.50;;;18.52;61.80
16793;BME280;8513;42.662;23.350;2022-09-09T04:28:21;95124.97;;;18.38;61.89
16793;BME280;8513;42.662;23.350;2022-09-09T04:30:47;95122.00;;;18.19;62.80
16793;BME280;8513;42.662;23.350;2022-09-09T04:33:15;95123.03;;;18.25;62.63
16793;BME280;8513;42.662;23.350;2022-09-09T04:35:49;95117.72;;;18.25;62.38
16793;BME280;8513;42.662;23.350;2022-09-09T04:38:16;95121.19;;;18.25;62.77
16793;BME280;8513;42.662;23.350;2022-09-09T04:40:49;95125.28;;;18.21;62.79
16793;BME280;8513;42.662;23.350;2022-09-09T04:43:16;95129.66;;;18.36;62.14
16793;BME280;8513;42.662;23.350;2022-09-09T04:45:43;95138.03;;;18.33;62.42
16793;BME280;8513;42.662;23.350;2022-09-09T04:48:09;95137.66;;;18.36;62.45
16793;BME280;8513;42.662;23.350;2022-09-09T04:50:37;95129.47;;;18.37;62.44
16793;BME280;8513;42.662;23.350;2022-09-09T04:53:03;95116.78;;;18.39;62.18
16793;BME280;8513;42.662;23.350;2022-09-09T04:55:30;95110.41;;;18.34;62.29
16793;BME280;8513;42.662;23.350;2022-09-09T04:57:56;95114.78;;;18.48;61.80
16793;BME280;8513;42.662;23.350;2022-09-09T05:00:23;95111.72;;;18.51;61.23
16793;BME280;8513;42.662;23.350;2022-09-09T05:02:48;95109.69;;;18.60;60.37
16793;BME280;8513;42.662;23.350;2022-09-09T05:05:13;95113.22;;;18.67;60.33
16793;BME280;8513;42.662;23.350;2022-09-09T05:07:39;95111.72;;;18.58;60.93
16793;BME280;8513;42.662;23.350;2022-09-09T05:10:05;95099.66;;;18.62;61.20
16793;BME280;8513;42.662;23.350;2022-09-09T05:12:31;95087.59;;;18.66;61.16
16793;BME280;8513;42.662;23.350;2022-09-09T05:14:57;95088.09;;;18.83;60.60
16793;BME280;8513;42.662;23.350;2022-09-09T05:17:22;95105.75;;;18.90;60.38
16793;BME280;8513;42.662;23.350;2022-09-09T05:19:48;95112.28;;;18.94;60.09
16793;BME280;8513;42.662;23.350;2022-09-09T05:22:20;95110.50;;;18.60;60.99
16793;BME280;8513;42.662;23.350;2022-09-09T05:24:48;95100.41;;;18.42;61.18
16793;BME280;8513;42.662;23.350;2022-09-09T05:27:16;95091.97;;;18.80;60.21
16793;BME280;8513;42.662;23.350;2022-09-09T05:29:43;95098.38;;;18.92;59.39
16793;BME280;8513;42.662;23.350;2022-09-09T05:32:09;95094.28;;;19.10;59.03
16793;BME280;8513;42.662;23.350;2022-09-09T05:34:35;95088.97;;;19.23;58.41
16793;BME280;8513;42.662;23.350;2022-09-09T05:37:00;95094.09;;;19.18;58.01
16793;BME280;8513;42.662;23.350;2022-09-09T05:39:26;95101.31;;;19.44;57.27
16793;BME280;8513;42.662;23.350;2022-09-09T05:41:51;95098.41;;;19.46;56.76
16793;BME280;8513;42.662;23.350;2022-09-09T05:44:16;95101.09;;;19.46;56.79
16793;BME280;8513;42.662;23.350;2022-09-09T05:46:42;95102.31;;;19.43;56.89
16793;BME280;8513;42.662;23.350;2022-09-09T05:49:08;95108.28;;;19.52;57.12
16793;BME280;8513;42.662;23.350;2022-09-09T05:51:33;95109.72;;;19.61;56.39
16793;BME280;8513;42.662;23.350;2022-09-09T05:53:59;95110.97;;;19.85;55.83
16793;BME280;8513;42.662;23.350;2022-09-09T05:56:27;95101.13;;;19.72;56.08
16793;BME280;8513;42.662;23.350;2022-09-09T05:58:54;95107.69;;;19.76;55.46
16793;BME280;8513;42.662;23.350;2022-09-09T06:01:24;95106.06;;;19.75;54.96
16793;BME280;8513;42.662;23.350;2022-09-09T06:03:51;95107.47;;;19.85;54.43
16793;BME280;8513;42.662;23.350;2022-09-09T06:06:25;95115.09;;;19.81;54.44
16793;BME280;8513;42.662;23.350;2022-09-09T06:08:53;95120.81;;;19.85;54.26
16793;BME280;8513;42.662;23.350;2022-09-09T06:11:26;95128.22;;;19.89;54.48
16793;BME280;8513;42.662;23.350;2022-09-09T06:13:52;95121.84;;;19.97;53.43
16793;BME280;8513;42.662;23.350;2022-09-09T06:16:21;95124.06;;;20.07;52.86
16793;BME280;8513;42.662;23.350;2022-09-09T06:18:51;95111.31;;;20.15;52.72
16793;BME280;8513;42.662;23.350;2022-09-09T06:21:24;95115.03;;;20.21;52.70
16793;BME280;8513;42.662;23.350;2022-09-09T06:23:50;95116.19;;;20.38;52.39
16793;BME280;8513;42.662;23.350;2022-09-09T06:26:25;95119.47;;;20.40;52.22
16793;BME280;8513;42.662;23.350;2022-09-09T06:28:53;95113.72;;;20.37;51.95
16793;BME280;8513;42.662;23.350;2022-09-09T06:31:21;95123.16;;;20.46;52.23
16793;BME280;8513;42.662;23.350;2022-09-09T06:33:47;95118.81;;;20.52;52.14
16793;BME280;8513;42.662;23.350;2022-09-09T06:36:40;95115.09;;;20.66;51.27
16793;BME280;8513;42.662;23.350;2022-09-09T06:39:06;95107.50;;;20.69;51.23
16793;BME280;8513;42.662;23.350;2022-09-09T06:41:32;95107.25;;;20.78;51.40
16793;BME280;8513;42.662;23.350;2022-09-09T06:43:58;95109.56;;;20.61;51.09
16793;BME280;8513;42.662;23.350;2022-09-09T06:46:26;95110.19;;;20.63;51.26
16793;BME280;8513;42.662;23.350;2022-09-09T06:48:55;95102.72;;;20.78;50.70
16793;BME280;8513;42.662;23.350;2022-09-09T06:51:23;95118.13;;;20.76;50.94
16793;BME280;8513;42.662;23.350;2022-09-09T06:53:52;95113.97;;;20.87;49.64
16793;BME280;8513;42.662;23.350;2022-09-09T06:56:21;95124.03;;;20.91;49.54
16793;BME280;8513;42.662;23.350;2022-09-09T06:58:50;95128.69;;;21.03;49.94
16793;BME280;8513;42.662;23.350;2022-09-09T07:01:18;95125.00;;;21.04;49.67
16793;BME280;8513;42.662;23.350;2022-09-09T07:03:50;95124.22;;;20.90;49.22
16793;BME280;8513;42.662;23.350;2022-09-09T07:06:20;95127.09;;;20.95;49.18
16793;BME280;8513;42.662;23.350;2022-09-09T07:08:57;95125.72;;;20.79;49.58
16793;BME280;8513;42.662;23.350;2022-09-09T07:11:26;95132.41;;;21.02;48.93
16793;BME280;8513;42.662;23.350;2022-09-09T07:13:53;95127.81;;;21.15;48.58
16793;BME280;8513;42.662;23.350;2022-09-09T07:16:20;95121.31;;;21.36;48.21
16793;BME280;8513;42.662;23.350;2022-09-09T07:18:46;95115.97;;;20.98;49.24
16793;BME280;8513;42.662;23.350;2022-09-09T07:21:13;95121.25;;;21.11;49.00
16793;BME280;8513;42.662;23.350;2022-09-09T07:23:40;95118.56;;;21.11;48.74
16793;BME280;8513;42.662;23.350;2022-09-09T07:26:11;95117.28;;;21.21;48.41
16793;BME280;8513;42.662;23.350;2022-09-09T07:28:39;95115.06;;;21.18;48.49
16793;BME280;8513;42.662;23.350;2022-09-09T07:31:08;95118.22;;;21.33;48.31
16793;BME280;8513;42.662;23.350;2022-09-09T07:33:39;95109.41;;;21.64;47.62
16793;BME280;8513;42.662;23.350;2022-09-09T07:36:19;95104.25;;;21.88;47.41
16793;BME280;8513;42.662;23.350;2022-09-09T07:38:59;95108.59;;;22.07;46.85
16793;BME280;8513;42.662;23.350;2022-09-09T07:41:27;95108.53;;;22.14;46.71
16793;BME280;8513;42.662;23.350;2022-09-09T07:43:54;95116.03;;;22.05;45.65
16793;BME280;8513;42.662;23.350;2022-09-09T07:46:21;95119.25;;;22.14;46.00
16793;BME280;8513;42.662;23.350;2022-09-09T07:48:52;95112.59;;;22.60;44.99
16793;BME280;8513;42.662;23.350;2022-09-09T07:51:22;95116.09;;;22.79;44.45
16793;BME280;8513;42.662;23.350;2022-09-09T07:53:48;95116.19;;;22.54;44.28
16793;BME280;8513;42.662;23.350;2022-09-09T07:56:16;95114.47;;;22.78;43.76
16793;BME280;8513;42.662;23.350;2022-09-09T07:58:45;95114.88;;;22.75;43.66
16793;BME280;8513;42.662;23.350;2022-09-09T08:01:23;95112.75;;;23.02;43.28
16793;BME280;8513;42.662;23.350;2022-09-09T08:03:55;95102.41;;;23.17;43.06
16793;BME280;8513;42.662;23.350;2022-09-09T08:06:20;95106.69;;;23.37;42.29
16793;BME280;8513;42.662;23.350;2022-09-09T08:08:50;95106.69;;;23.60;42.01
16793;BME280;8513;42.662;23.350;2022-09-09T08:11:16;95109.63;;;23.59;41.50
16793;BME280;8513;42.662;23.350;2022-09-09T08:13:43;95115.63;;;23.72;41.02
16793;BME280;8513;42.662;23.350;2022-09-09T08:18:34;95109.75;;;23.64;40.97
16793;BME280;8513;42.662;23.350;2022-09-09T08:21:08;95105.72;;;23.96;40.59
16793;BME280;8513;42.662;23.350;2022-09-09T08:23:38;95104.69;;;24.21;40.38
16793;BME280;8513;42.662;23.350;2022-09-09T08:26:11;95103.03;;;24.43;39.92
16793;BME280;8513;42.662;23.350;2022-09-09T08:28:37;95106.16;;;24.64;38.47
16793;BME280;8513;42.662;23.350;2022-09-09T08:31:15;95112.38;;;24.64;39.14
16793;BME280;8513;42.662;23.350;2022-09-09T08:33:42;95104.06;;;24.42;38.98
16793;BME280;8513;42.662;23.350;2022-09-09T08:36:15;95105.22;;;24.70;38.99
16793;BME280;8513;42.662;23.350;2022-09-09T08:38:42;95103.56;;;24.69;39.50
16793;BME280;8513;42.662;23.350;2022-09-09T08:52:41;95090.69;;;25.12;38.11
16793;BME280;8513;42.662;23.350;2022-09-09T08:58:08;95102.66;;;25.16;39.49
16793;BME280;8513;42.662;23.350;2022-09-09T09:06:45;95096.13;;;25.28;38.55
16793;BME280;8513;42.662;23.350;2022-09-09T09:09:26;95100.97;;;25.26;38.40
16793;BME280;8513;42.662;23.350;2022-09-09T09:11:57;95092.09;;;25.60;37.67
16793;BME280;8513;42.662;23.350;2022-09-09T09:14:29;95100.16;;;25.88;37.18
16793;BME280;8513;42.662;23.350;2022-09-09T09:17:04;95096.94;;;26.08;36.51
16793;BME280;8513;42.662;23.350;2022-09-09T09:19:33;95093.69;;;26.06;36.85
16793;BME280;8513;42.662;23.350;2022-09-09T09:27:33;95088.38;;;25.78;37.29
16793;BME280;8513;42.662;23.350;2022-09-09T09:30:05;95091.88;;;25.78;36.95
16793;BME280;8513;42.662;23.350;2022-09-09T09:32:36;95097.69;;;25.87;37.00
16793;BME280;8513;42.662;23.350;2022-09-09T09:35:10;95096.88;;;25.86;37.47
16793;BME280;8513;42.662;23.350;2022-09-09T09:37:36;95090.00;;;25.04;38.58
16793;BME280;8513;42.662;23.350;2022-09-09T09:40:17;95087.28;;;25.62;37.08
16793;BME280;8513;42.662;23.350;2022-09-09T09:43:01;95084.03;;;26.10;36.19
16793;BME280;8513;42.662;23.350;2022-09-09T09:45:35;95072.53;;;26.54;35.66
16793;BME280;8513;42.662;23.350;2022-09-09T09:48:10;95066.16;;;26.60;35.87
16793;BME280;8513;42.662;23.350;2022-09-09T09:50:47;95068.34;;;26.63;35.63
16793;BME280;8513;42.662;23.350;2022-09-09T09:53:39;95059.47;;;26.68;35.61
16793;BME280;8513;42.662;23.350;2022-09-09T09:56:31;95059.28;;;26.74;35.80
16793;BME280;8513;42.662;23.350;2022-09-09T09:58:58;95057.72;;;26.56;36.06
16793;BME280;8513;42.662;23.350;2022-09-09T10:01:27;95059.44;;;26.63;35.47
16793;BME280;8513;42.662;23.350;2022-09-09T10:04:17;95054.78;;;26.58;35.09
16793;BME280;8513;42.662;23.350;2022-09-09T10:06:45;95053.81;;;26.47;35.51
16793;BME280;8513;42.662;23.350;2022-09-09T10:09:28;95066.94;;;26.22;36.62
16793;BME280;8513;42.662;23.350;2022-09-09T10:14:58;95073.09;;;25.83;37.92
16793;BME280;8513;42.662;23.350;2022-09-09T10:17:39;95072.59;;;25.52;38.03
16793;BME280;8513;42.662;23.350;2022-09-09T10:22:36;95075.63;;;25.73;38.33
16793;BME280;8513;42.662;23.350;2022-09-09T10:28:08;95076.72;;;25.89;37.26
16793;BME280;8513;42.662;23.350;2022-09-09T10:31:07;95082.34;;;25.87;38.33
16793;BME280;8513;42.662;23.350;2022-09-09T10:34:17;95072.75;;;25.63;38.47
16793;BME280;8513;42.662;23.350;2022-09-09T10:36:49;95079.13;;;25.57;39.88
16793;BME280;8513;42.662;23.350;2022-09-09T10:39:37;95085.72;;;25.66;38.93
16793;BME280;8513;42.662;23.350;2022-09-09T10:42:16;95080.13;;;25.67;38.24
16793;BME280;8513;42.662;23.350;2022-09-09T10:55:39;95091.13;;;25.83;38.54
16793;BME280;8513;42.662;23.350;2022-09-09T10:58:12;95080.72;;;25.86;37.92
16793;BME280;8513;42.662;23.350;2022-09-09T11:00:49;95078.22;;;25.68;38.46
16793;BME280;8513;42.662;23.350;2022-09-09T11:03:26;95078.16;;;25.46;39.50
16793;BME280;8513;42.662;23.350;2022-09-09T11:05:56;95076.66;;;25.38;39.98
16793;BME280;8513;42.662;23.350;2022-09-09T11:08:28;95080.66;;;25.52;39.86
16793;BME280;8513;42.662;23.350;2022-09-09T11:21:55;95076.38;;;26.41;38.15
16793;BME280;8513;42.662;23.350;2022-09-09T11:27:35;95058.06;;;26.60;37.91
16793;BME280;8513;42.662;23.350;2022-09-09T11:30:12;95052.97;;;26.64;38.10
16793;BME280;8513;42.662;23.350;2022-09-09T11:33:10;95051.66;;;26.66;38.19
16793;BME280;8513;42.662;23.350;2022-09-09T11:35:56;95044.28;;;26.83;37.54
16793;BME280;8513;42.662;23.350;2022-09-09T11:38:45;95034.88;;;26.86;37.26
16793;BME280;8513;42.662;23.350;2022-09-09T11:41:11;95027.56;;;26.81;38.02
16793;BME280;8513;42.662;23.350;2022-09-09T11:43:41;95033.31;;;26.90;38.02
16793;BME280;8513;42.662;23.350;2022-09-09T11:46:08;95026.22;;;26.84;37.68
16793;BME280;8513;42.662;23.350;2022-09-09T11:48:40;95015.63;;;26.77;37.85
16793;BME280;8513;42.662;23.350;2022-09-09T11:51:25;95002.81;;;26.90;37.77
16793;BME280;8513;42.662;23.350;2022-09-09T11:53:53;94978.06;;;26.98;37.39
16793;BME280;8513;42.662;23.350;2022-09-09T11:56:43;94985.59;;;27.23;37.14
16793;BME280;8513;42.662;23.350;2022-09-09T11:59:29;94990.81;;;27.30;37.84
16793;BME280;8513;42.662;23.350;2022-09-09T12:04:30;94999.84;;;27.45;36.86
16793;BME280;8513;42.662;23.350;2022-09-09T12:09:48;95007.22;;;27.60;36.73
16793;BME280;8513;42.662;23.350;2022-09-09T12:12:33;94993.53;;;28.09;35.68
16793;BME280;8513;42.662;23.350;2022-09-09T12:15:01;94994.66;;;28.19;36.26
16793;BME280;8513;42.662;23.350;2022-09-09T12:17:31;94995.41;;;28.62;34.75
16793;BME280;8513;42.662;23.350;2022-09-09T12:23:01;94982.00;;;29.54;33.45
16793;BME280;8513;42.662;23.350;2022-09-09T12:25:52;94981.78;;;29.71;33.52
16793;BME280;8513;42.662;23.350;2022-09-09T12:28:25;94973.63;;;29.45;34.00
16793;BME280;8513;42.662;23.350;2022-09-09T12:33:40;94968.50;;;29.64;33.10
16793;BME280;8513;42.662;23.350;2022-09-09T12:36:14;94969.59;;;29.78;33.58
16793;BME280;8513;42.662;23.350;2022-09-09T12:38:42;94961.47;;;29.27;34.05
16793;BME280;8513;42.662;23.350;2022-09-09T12:41:24;94952.66;;;28.53;35.12
16793;BME280;8513;42.662;23.350;2022-09-09T12:44:02;94948.56;;;28.46;36.01
16793;BME280;8513;42.662;23.350;2022-09-09T12:46:42;94955.78;;;28.35;36.07
16793;BME280;8513;42.662;23.350;2022-09-09T12:49:31;94952.59;;;28.43;35.37
16793;BME280;8513;42.662;23.350;2022-09-09T12:52:02;94953.72;;;28.47;35.31
16793;BME280;8513;42.662;23.350;2022-09-09T12:54:29;94952.09;;;28.51;35.52
16793;BME280;8513;42.662;23.350;2022-09-09T12:56:55;94946.47;;;28.68;35.16
16793;BME280;8513;42.662;23.350;2022-09-09T12:59:26;94954.91;;;29.59;34.29
16793;BME280;8513;42.662;23.350;2022-09-09T13:01:59;94937.13;;;30.43;32.55
16793;BME280;8513;42.662;23.350;2022-09-09T13:04:24;94932.72;;;30.52;32.18
16793;BME280;8513;42.662;23.350;2022-09-09T13:06:50;94926.09;;;30.09;32.40
16793;BME280;8513;42.662;23.350;2022-09-09T13:09:17;94931.06;;;29.92;33.19
16793;BME280;8513;42.662;23.350;2022-09-09T13:11:53;94943.81;;;29.86;33.22
16793;BME280;8513;42.662;23.350;2022-09-09T13:14:33;94932.75;;;29.41;34.07
16793;BME280;8513;42.662;23.350;2022-09-09T13:17:04;94938.97;;;29.21;34.40
16793;BME280;8513;42.662;23.350;2022-09-09T13:19:33;94927.53;;;28.84;35.09
16793;BME280;8513;42.662;23.350;2022-09-09T13:22:11;94928.91;;;29.01;35.26
16793;BME280;8513;42.662;23.350;2022-09-09T13:24:38;94926.25;;;29.12;34.82
16793;BME280;8513;42.662;23.350;2022-09-09T13:27:28;94917.03;;;29.18;34.90
16793;BME280;8513;42.662;23.350;2022-09-09T13:29:55;94919.19;;;29.52;34.35
16793;BME280;8513;42.662;23.350;2022-09-09T13:32:22;94913.22;;;29.44;34.60
16793;BME280;8513;42.662;23.350;2022-09-09T13:37:36;94892.03;;;28.54;36.45
16793;BME280;8513;42.662;23.350;2022-09-09T13:40:04;94898.53;;;28.48;36.53
16793;BME280;8513;42.662;23.350;2022-09-09T13:42:32;94897.47;;;28.44;37.17
16793;BME280;8513;42.662;23.350;2022-09-09T13:45:02;94897.72;;;28.48;37.26
16793;BME280;8513;42.662;23.350;2022-09-09T13:47:34;94896.38;;;28.50;37.85
16793;BME280;8513;42.662;23.350;2022-09-09T13:50:29;94895.91;;;28.79;36.90
16793;BME280;8513;42.662;23.350;2022-09-09T13:52:59;94881.84;;;29.13;35.75
16793;BME280;8513;42.662;23.350;2022-09-09T13:55:28;94882.28;;;29.81;34.16
16793;BME280;8513;42.662;23.350;2022-09-09T13:57:57;94888.75;;;31.00;31.94
16793;BME280;8513;42.662;23.350;2022-09-09T14:00:23;94892.59;;;31.28;31.73
16793;BME280;8513;42.662;23.350;2022-09-09T14:02:50;94889.69;;;31.78;31.00
16793;BME280;8513;42.662;23.350;2022-09-09T14:05:18;94883.78;;;33.00;28.49
16793;BME280;8513;42.662;23.350;2022-09-09T14:07:44;94892.00;;;34.98;25.48
16793;BME280;8513;42.662;23.350;2022-09-09T14:10:11;94891.59;;;37.30;22.37
16793;BME280;8513;42.662;23.350;2022-09-09T14:12:37;94885.81;;;38.65;20.74
16793;BME280;8513;42.662;23.350;2022-09-09T14:15:04;94889.88;;;40.21;18.83
16793;BME280;8513;42.662;23.350;2022-09-09T14:17:29;94891.13;;;41.26;17.62
16793;BME280;8513;42.662;23.350;2022-09-09T14:19:55;94886.22;;;38.75;20.40
16793;BME280;8513;42.662;23.350;2022-09-09T14:22:22;94876.28;;;35.04;24.71
16793;BME280;8513;42.662;23.350;2022-09-09T14:24:48;94882.09;;;33.04;27.32
16793;BME280;8513;42.662;23.350;2022-09-09T14:27:14;94868.25;;;32.43;28.38
16793;BME280;8513;42.662;23.350;2022-09-09T14:29:40;94869.59;;;32.03;28.87
16793;BME280;8513;42.662;23.350;2022-09-09T14:32:05;94863.16;;;31.94;29.22
16793;BME280;8513;42.662;23.350;2022-09-09T14:34:31;94870.13;;;31.52;29.73
16793;BME280;8513;42.662;23.350;2022-09-09T14:36:58;94870.06;;;31.28;30.30
16793;BME280;8513;42.662;23.350;2022-09-09T14:39:23;94870.97;;;30.84;31.06
16793;BME280;8513;42.662;23.350;2022-09-09T14:41:49;94869.75;;;30.01;32.38
16793;BME280;8513;42.662;23.350;2022-09-09T14:44:14;94867.19;;;29.65;33.45
16793;BME280;8513;42.662;23.350;2022-09-09T14:46:41;94864.25;;;29.26;33.64
16793;BME280;8513;42.662;23.350;2022-09-09T14:49:08;94862.31;;;29.41;33.78
16793;BME280;8513;42.662;23.350;2022-09-09T14:51:35;94857.13;;;29.55;33.73
16793;BME280;8513;42.662;23.350;2022-09-09T14:54:01;94862.34;;;29.26;34.29
16793;BME280;8513;42.662;23.350;2022-09-09T14:56:29;94855.56;;;29.18;34.91
16793;BME280;8513;42.662;23.350;2022-09-09T14:58:57;94864.75;;;28.92;35.03
16793;BME280;8513;42.662;23.350;2022-09-09T15:01:24;94859.63;;;28.70;35.88
16793;BME280;8513;42.662;23.350;2022-09-09T15:03:54;94868.44;;;28.29;36.49
16793;BME280;8513;42.662;23.350;2022-09-09T15:06:22;94869.75;;;28.17;36.65
16793;BME280;8513;42.662;23.350;2022-09-09T15:08:50;94876.22;;;28.05;37.10
16793;BME280;8513;42.662;23.350;2022-09-09T15:11:17;94876.69;;;27.92;37.39
16793;BME280;8513;42.662;23.350;2022-09-09T15:13:43;94883.69;;;27.88;37.60
16793;BME280;8513;42.662;23.350;2022-09-09T15:16:14;94886.66;;;27.81;37.99
16793;BME280;8513;42.662;23.350;2022-09-09T15:18:40;94887.47;;;27.87;38.22
16793;BME280;8513;42.662;23.350;2022-09-09T15:21:11;94882.78;;;28.35;37.53
16793;BME280;8513;42.662;23.350;2022-09-09T15:23:37;94893.22;;;33.07;29.34